Terminal Aerodrome Forecast
Issued by NWS

Home | Current Version | Previous Version | Text Only | Print | Product List | Glossary Off
Versions: 1 2 3 4 5 6 7 8 9 10 11 12 13 14 15 16 17 18 19 20 21 22 23 24 25 26 27 28 29 30 31 32 33 34

000
FTUS43 KLOT 142200 AAB
TAFDPA
TAF AMD
KDPA 142204Z 1422/1518 22009KT P6SM SKC
     FM150100 21003KT P6SM SCT120 SCT250
     FM151500 25006KT P6SM -RA SCT040 BKN080 BKN120=

USA.gov is the U.S. government's official web portal to all federal, state and local government web resources and services.